sensor_id;sensor_type;location;lat;lon;timestamp;P1;durP1;ratioP1;P2;durP2;ratioP2
13048;SDS011;6591;51.446;5.404;2023-02-28T00:01:32;9.00;;;6.90;;
13048;SDS011;6591;51.446;5.404;2023-02-28T00:03:59;9.47;;;6.93;;
13048;SDS011;6591;51.446;5.404;2023-02-28T00:06:27;8.97;;;7.13;;
13048;SDS011;6591;51.446;5.404;2023-02-28T00:08:54;8.07;;;6.70;;
13048;SDS011;6591;51.446;5.404;2023-02-28T00:11:21;7.67;;;6.40;;
13048;SDS011;6591;51.446;5.404;2023-02-28T00:13:48;9.00;;;6.90;;
13048;SDS011;6591;51.446;5.404;2023-02-28T00:16:17;11.03;;;7.30;;
13048;SDS011;6591;51.446;5.404;2023-02-28T00:18:47;7.90;;;7.10;;
13048;SDS011;6591;51.446;5.404;2023-02-28T00:21:16;9.10;;;7.50;;
13048;SDS011;6591;51.446;5.404;2023-02-28T00:23:46;11.10;;;7.53;;
13048;SDS011;6591;51.446;5.404;2023-02-28T00:26:15;7.80;;;7.00;;
13048;SDS011;6591;51.446;5.404;2023-02-28T00:28:45;8.77;;;7.40;;
13048;SDS011;6591;51.446;5.404;2023-02-28T00:31:12;10.90;;;7.73;;
13048;SDS011;6591;51.446;5.404;2023-02-28T00:33:39;9.03;;;7.17;;
13048;SDS011;6591;51.446;5.404;2023-02-28T00:36:08;9.13;;;7.43;;
13048;SDS011;6591;51.446;5.404;2023-02-28T00:38:37;8.47;;;6.97;;
13048;SDS011;6591;51.446;5.404;2023-02-28T00:41:06;8.83;;;7.00;;
13048;SDS011;6591;51.446;5.404;2023-02-28T00:43:35;8.30;;;7.07;;
13048;SDS011;6591;51.446;5.404;2023-02-28T00:46:05;10.20;;;7.07;;
13048;SDS011;6591;51.446;5.404;2023-02-28T00:48:33;8.77;;;7.17;;
13048;SDS011;6591;51.446;5.404;2023-02-28T00:51:00;8.50;;;7.13;;
13048;SDS011;6591;51.446;5.404;2023-02-28T00:53:28;9.47;;;6.60;;
13048;SDS011;6591;51.446;5.404;2023-02-28T00:55:56;8.37;;;6.50;;
13048;SDS011;6591;51.446;5.404;2023-02-28T00:58:24;7.77;;;6.40;;
13048;SDS011;6591;51.446;5.404;2023-02-28T01:00:52;7.77;;;6.83;;
13048;SDS011;6591;51.446;5.404;2023-02-28T01:03:20;7.27;;;6.23;;
13048;SDS011;6591;51.446;5.404;2023-02-28T01:05:49;7.50;;;6.20;;
13048;SDS011;6591;51.446;5.404;2023-02-28T01:08:16;7.30;;;6.47;;
13048;SDS011;6591;51.446;5.404;2023-02-28T01:10:43;8.43;;;6.23;;
13048;SDS011;6591;51.446;5.404;2023-02-28T01:13:11;8.73;;;6.40;;
13048;SDS011;6591;51.446;5.404;2023-02-28T01:15:49;9.20;;;5.83;;
13048;SDS011;6591;51.446;5.404;2023-02-28T01:18:19;7.83;;;5.67;;
13048;SDS011;6591;51.446;5.404;2023-02-28T01:20:47;6.77;;;5.80;;
13048;SDS011;6591;51.446;5.404;2023-02-28T01:23:15;8.47;;;6.07;;
13048;SDS011;6591;51.446;5.404;2023-02-28T01:25:42;8.47;;;6.27;;
13048;SDS011;6591;51.446;5.404;2023-02-28T01:28:09;9.50;;;6.60;;
13048;SDS011;6591;51.446;5.404;2023-02-28T01:30:36;8.47;;;6.73;;
13048;SDS011;6591;51.446;5.404;2023-02-28T01:33:05;8.10;;;6.43;;
13048;SDS011;6591;51.446;5.404;2023-02-28T01:35:33;9.83;;;6.67;;
13048;SDS011;6591;51.446;5.404;2023-02-28T01:38:02;6.70;;;5.90;;
13048;SDS011;6591;51.446;5.404;2023-02-28T01:40:46;8.87;;;6.57;;
13048;SDS011;6591;51.446;5.404;2023-02-28T01:43:19;9.80;;;6.90;;
13048;SDS011;6591;51.446;5.404;2023-02-28T01:45:51;7.20;;;5.90;;
13048;SDS011;6591;51.446;5.404;2023-02-28T01:48:31;7.23;;;6.10;;
13048;SDS011;6591;51.446;5.404;2023-02-28T01:51:05;8.23;;;6.17;;
13048;SDS011;6591;51.446;5.404;2023-02-28T01:53:42;8.70;;;6.27;;
13048;SDS011;6591;51.446;5.404;2023-02-28T01:56:16;6.97;;;6.27;;
13048;SDS011;6591;51.446;5.404;2023-02-28T01:58:49;10.93;;;6.60;;
13048;SDS011;6591;51.446;5.404;2023-02-28T02:01:22;8.90;;;6.00;;
13048;SDS011;6591;51.446;5.404;2023-02-28T02:03:54;7.77;;;6.20;;
13048;SDS011;6591;51.446;5.404;2023-02-28T02:06:36;10.73;;;6.17;;
13048;SDS011;6591;51.446;5.404;2023-02-28T02:09:09;7.93;;;5.93;;
13048;SDS011;6591;51.446;5.404;2023-02-28T02:11:39;7.20;;;5.70;;
13048;SDS011;6591;51.446;5.404;2023-02-28T02:14:16;7.93;;;6.33;;
13048;SDS011;6591;51.446;5.404;2023-02-28T02:17:22;7.33;;;5.43;;
13048;SDS011;6591;51.446;5.404;2023-02-28T02:20:16;6.83;;;6.00;;
13048;SDS011;6591;51.446;5.404;2023-02-28T02:26:27;7.37;;;6.10;;
13048;SDS011;6591;51.446;5.404;2023-02-28T02:32:45;6.97;;;5.30;;
13048;SDS011;6591;51.446;5.404;2023-02-28T02:43:26;8.07;;;5.63;;
13048;SDS011;6591;51.446;5.404;2023-02-28T02:46:04;7.37;;;6.17;;
13048;SDS011;6591;51.446;5.404;2023-02-28T02:48:43;9.07;;;6.87;;
13048;SDS011;6591;51.446;5.404;2023-02-28T02:51:14;8.30;;;6.27;;
13048;SDS011;6591;51.446;5.404;2023-02-28T02:53:52;8.00;;;6.53;;
13048;SDS011;6591;51.446;5.404;2023-02-28T02:56:32;12.03;;;7.27;;
13048;SDS011;6591;51.446;5.404;2023-02-28T02:59:03;10.50;;;6.57;;
13048;SDS011;6591;51.446;5.404;2023-02-28T03:01:35;9.90;;;7.67;;
13048;SDS011;6591;51.446;5.404;2023-02-28T03:04:09;11.37;;;7.53;;
13048;SDS011;6591;51.446;5.404;2023-02-28T03:06:45;8.50;;;6.93;;
13048;SDS011;6591;51.446;5.404;2023-02-28T03:09:13;8.27;;;6.30;;
13048;SDS011;6591;51.446;5.404;2023-02-28T03:11:40;8.27;;;6.70;;
13048;SDS011;6591;51.446;5.404;2023-02-28T03:33:59;7.07;;;5.77;;
13048;SDS011;6591;51.446;5.404;2023-02-28T03:37:11;8.13;;;5.80;;
13048;SDS011;6591;51.446;5.404;2023-02-28T03:39:49;6.77;;;5.70;;
13048;SDS011;6591;51.446;5.404;2023-02-28T03:42:27;8.20;;;5.97;;
13048;SDS011;6591;51.446;5.404;2023-02-28T03:44:59;9.27;;;5.67;;
13048;SDS011;6591;51.446;5.404;2023-02-28T03:50:43;8.20;;;5.83;;
13048;SDS011;6591;51.446;5.404;2023-02-28T03:53:19;6.83;;;5.40;;
13048;SDS011;6591;51.446;5.404;2023-02-28T03:55:54;6.33;;;5.30;;
13048;SDS011;6591;51.446;5.404;2023-02-28T04:04:02;6.63;;;4.70;;
13048;SDS011;6591;51.446;5.404;2023-02-28T04:06:31;5.93;;;4.87;;
13048;SDS011;6591;51.446;5.404;2023-02-28T04:09:00;6.13;;;4.43;;
13048;SDS011;6591;51.446;5.404;2023-02-28T04:11:35;7.10;;;5.80;;
13048;SDS011;6591;51.446;5.404;2023-02-28T04:14:07;9.47;;;5.70;;
13048;SDS011;6591;51.446;5.404;2023-02-28T04:16:37;8.03;;;4.90;;
13048;SDS011;6591;51.446;5.404;2023-02-28T04:19:09;9.07;;;5.50;;
13048;SDS011;6591;51.446;5.404;2023-02-28T04:21:42;6.53;;;4.93;;
13048;SDS011;6591;51.446;5.404;2023-02-28T04:24:13;4.90;;;4.40;;
13048;SDS011;6591;51.446;5.404;2023-02-28T04:26:47;8.50;;;4.60;;
13048;SDS011;6591;51.446;5.404;2023-02-28T04:29:19;6.80;;;5.07;;
13048;SDS011;6591;51.446;5.404;2023-02-28T04:31:50;6.43;;;4.80;;
13048;SDS011;6591;51.446;5.404;2023-02-28T04:34:20;5.97;;;4.87;;
13048;SDS011;6591;51.446;5.404;2023-02-28T04:36:48;6.30;;;5.03;;
13048;SDS011;6591;51.446;5.404;2023-02-28T04:39:36;6.03;;;4.80;;
13048;SDS011;6591;51.446;5.404;2023-02-28T04:42:03;6.07;;;4.97;;
13048;SDS011;6591;51.446;5.404;2023-02-28T04:44:32;6.80;;;5.00;;
13048;SDS011;6591;51.446;5.404;2023-02-28T04:46:59;7.83;;;4.70;;
13048;SDS011;6591;51.446;5.404;2023-02-28T04:49:26;6.60;;;4.50;;
13048;SDS011;6591;51.446;5.404;2023-02-28T04:51:53;4.97;;;4.27;;
13048;SDS011;6591;51.446;5.404;2023-02-28T04:54:20;5.70;;;4.77;;
13048;SDS011;6591;51.446;5.404;2023-02-28T04:56:47;6.00;;;5.13;;
13048;SDS011;6591;51.446;5.404;2023-02-28T04:59:17;5.80;;;5.20;;
13048;SDS011;6591;51.446;5.404;2023-02-28T05:01:48;6.33;;;5.23;;
13048;SDS011;6591;51.446;5.404;2023-02-28T05:04:15;7.10;;;5.30;;
13048;SDS011;6591;51.446;5.404;2023-02-28T05:06:43;5.33;;;4.83;;
13048;SDS011;6591;51.446;5.404;2023-02-28T05:09:11;6.67;;;5.00;;
13048;SDS011;6591;51.446;5.404;2023-02-28T05:11:38;5.57;;;4.50;;
13048;SDS011;6591;51.446;5.404;2023-02-28T05:14:10;8.17;;;4.90;;
13048;SDS011;6591;51.446;5.404;2023-02-28T05:16:40;8.33;;;4.97;;
13048;SDS011;6591;51.446;5.404;2023-02-28T05:19:07;6.07;;;4.93;;
13048;SDS011;6591;51.446;5.404;2023-02-28T05:21:41;5.67;;;4.60;;
13048;SDS011;6591;51.446;5.404;2023-02-28T05:24:20;7.50;;;4.93;;
13048;SDS011;6591;51.446;5.404;2023-02-28T05:26:50;5.87;;;4.47;;
13048;SDS011;6591;51.446;5.404;2023-02-28T05:29:20;5.77;;;4.90;;
13048;SDS011;6591;51.446;5.404;2023-02-28T05:31:48;5.87;;;4.77;;
13048;SDS011;6591;51.446;5.404;2023-02-28T05:34:16;5.30;;;4.80;;
13048;SDS011;6591;51.446;5.404;2023-02-28T05:36:43;6.13;;;4.93;;
13048;SDS011;6591;51.446;5.404;2023-02-28T05:39:11;6.17;;;5.00;;
13048;SDS011;6591;51.446;5.404;2023-02-28T05:41:42;6.73;;;4.77;;
13048;SDS011;6591;51.446;5.404;2023-02-28T05:44:10;6.73;;;5.00;;
13048;SDS011;6591;51.446;5.404;2023-02-28T05:46:38;7.90;;;5.10;;
13048;SDS011;6591;51.446;5.404;2023-02-28T05:49:05;5.40;;;4.73;;
13048;SDS011;6591;51.446;5.404;2023-02-28T05:51:33;7.00;;;4.77;;
13048;SDS011;6591;51.446;5.404;2023-02-28T05:54:02;5.97;;;4.40;;
13048;SDS011;6591;51.446;5.404;2023-02-28T05:56:30;6.80;;;5.10;;
13048;SDS011;6591;51.446;5.404;2023-02-28T05:58:57;6.10;;;4.97;;
13048;SDS011;6591;51.446;5.404;2023-02-28T06:04:04;6.83;;;5.00;;
13048;SDS011;6591;51.446;5.404;2023-02-28T06:06:45;6.30;;;5.00;;
13048;SDS011;6591;51.446;5.404;2023-02-28T06:09:13;7.30;;;4.90;;
13048;SDS011;6591;51.446;5.404;2023-02-28T06:11:42;6.03;;;4.63;;
13048;SDS011;6591;51.446;5.404;2023-02-28T06:14:14;5.77;;;4.87;;
13048;SDS011;6591;51.446;5.404;2023-02-28T06:16:44;6.73;;;4.77;;
13048;SDS011;6591;51.446;5.404;2023-02-28T06:19:13;7.50;;;5.00;;
13048;SDS011;6591;51.446;5.404;2023-02-28T06:21:41;5.07;;;4.57;;
13048;SDS011;6591;51.446;5.404;2023-02-28T06:24:08;6.07;;;4.83;;
13048;SDS011;6591;51.446;5.404;2023-02-28T06:26:36;7.77;;;5.37;;
13048;SDS011;6591;51.446;5.404;2023-02-28T06:29:03;6.80;;;4.37;;
13048;SDS011;6591;51.446;5.404;2023-02-28T06:31:31;6.23;;;4.67;;
13048;SDS011;6591;51.446;5.404;2023-02-28T06:33:59;6.93;;;4.90;;
13048;SDS011;6591;51.446;5.404;2023-02-28T06:36:27;6.07;;;4.70;;
13048;SDS011;6591;51.446;5.404;2023-02-28T06:38:54;7.10;;;4.10;;
13048;SDS011;6591;51.446;5.404;2023-02-28T06:41:26;4.97;;;4.47;;
13048;SDS011;6591;51.446;5.404;2023-02-28T06:43:54;6.93;;;4.33;;
13048;SDS011;6591;51.446;5.404;2023-02-28T06:46:21;5.50;;;4.50;;
13048;SDS011;6591;51.446;5.404;2023-02-28T06:48:50;6.17;;;4.50;;
13048;SDS011;6591;51.446;5.404;2023-02-28T06:51:17;6.43;;;4.73;;
13048;SDS011;6591;51.446;5.404;2023-02-28T06:53:48;5.70;;;4.13;;
13048;SDS011;6591;51.446;5.404;2023-02-28T06:56:15;4.97;;;4.10;;
13048;SDS011;6591;51.446;5.404;2023-02-28T06:58:47;4.27;;;3.80;;
13048;SDS011;6591;51.446;5.404;2023-02-28T07:01:16;5.83;;;4.00;;
13048;SDS011;6591;51.446;5.404;2023-02-28T07:03:44;4.90;;;3.80;;
13048;SDS011;6591;51.446;5.404;2023-02-28T07:06:12;5.93;;;3.73;;
13048;SDS011;6591;51.446;5.404;2023-02-28T07:08:39;5.90;;;3.80;;
13048;SDS011;6591;51.446;5.404;2023-02-28T07:11:07;4.67;;;3.87;;
13048;SDS011;6591;51.446;5.404;2023-02-28T07:13:34;5.43;;;3.77;;
13048;SDS011;6591;51.446;5.404;2023-02-28T07:16:03;5.57;;;3.73;;
13048;SDS011;6591;51.446;5.404;2023-02-28T07:18:34;4.70;;;4.20;;
13048;SDS011;6591;51.446;5.404;2023-02-28T07:21:02;3.83;;;3.50;;
13048;SDS011;6591;51.446;5.404;2023-02-28T07:23:35;4.77;;;3.80;;
13048;SDS011;6591;51.446;5.404;2023-02-28T07:26:08;5.23;;;3.53;;
13048;SDS011;6591;51.446;5.404;2023-02-28T07:28:41;4.10;;;3.20;;
13048;SDS011;6591;51.446;5.404;2023-02-28T07:31:23;3.50;;;3.13;;
13048;SDS011;6591;51.446;5.404;2023-02-28T07:33:50;4.20;;;3.40;;
13048;SDS011;6591;51.446;5.404;2023-02-28T07:36:17;4.40;;;3.53;;
13048;SDS011;6591;51.446;5.404;2023-02-28T07:38:47;4.33;;;2.90;;
13048;SDS011;6591;51.446;5.404;2023-02-28T07:41:17;5.80;;;3.30;;
13048;SDS011;6591;51.446;5.404;2023-02-28T07:43:47;3.90;;;3.37;;
13048;SDS011;6591;51.446;5.404;2023-02-28T07:46:15;3.33;;;2.90;;
13048;SDS011;6591;51.446;5.404;2023-02-28T07:48:43;5.87;;;3.53;;
13048;SDS011;6591;51.446;5.404;2023-02-28T07:51:11;4.13;;;3.27;;
13048;SDS011;6591;51.446;5.404;2023-02-28T07:53:38;4.77;;;3.40;;
13048;SDS011;6591;51.446;5.404;2023-02-28T07:56:06;4.83;;;3.00;;
13048;SDS011;6591;51.446;5.404;2023-02-28T07:58:34;4.17;;;3.30;;
13048;SDS011;6591;51.446;5.404;2023-02-28T08:01:08;4.57;;;3.23;;
13048;SDS011;6591;51.446;5.404;2023-02-28T08:03:37;6.30;;;3.10;;
13048;SDS011;6591;51.446;5.404;2023-02-28T08:06:06;3.13;;;2.80;;
13048;SDS011;6591;51.446;5.404;2023-02-28T08:08:42;4.07;;;2.90;;
13048;SDS011;6591;51.446;5.404;2023-02-28T08:11:10;4.10;;;2.90;;
13048;SDS011;6591;51.446;5.404;2023-02-28T08:13:37;3.27;;;2.67;;
13048;SDS011;6591;51.446;5.404;2023-02-28T08:16:04;4.10;;;2.87;;
13048;SDS011;6591;51.446;5.404;2023-02-28T08:18:32;5.83;;;3.10;;
13048;SDS011;6591;51.446;5.404;2023-02-28T08:21:04;4.37;;;3.20;;
13048;SDS011;6591;51.446;5.404;2023-02-28T08:23:36;4.57;;;2.60;;
13048;SDS011;6591;51.446;5.404;2023-02-28T08:26:03;5.33;;;3.10;;
13048;SDS011;6591;51.446;5.404;2023-02-28T08:28:31;3.87;;;2.43;;
13048;SDS011;6591;51.446;5.404;2023-02-28T08:30:58;3.73;;;2.80;;
13048;SDS011;6591;51.446;5.404;2023-02-28T08:33:26;3.63;;;2.47;;
13048;SDS011;6591;51.446;5.404;2023-02-28T08:35:54;4.47;;;2.80;;
13048;SDS011;6591;51.446;5.404;2023-02-28T08:38:23;3.17;;;2.30;;
13048;SDS011;6591;51.446;5.404;2023-02-28T08:40:56;2.87;;;2.30;;
13048;SDS011;6591;51.446;5.404;2023-02-28T08:43:26;2.90;;;2.43;;
13048;SDS011;6591;51.446;5.404;2023-02-28T08:45:55;3.13;;;2.40;;
13048;SDS011;6591;51.446;5.404;2023-02-28T08:48:28;3.80;;;2.33;;
13048;SDS011;6591;51.446;5.404;2023-02-28T08:51:00;3.90;;;2.27;;
13048;SDS011;6591;51.446;5.404;2023-02-28T08:53:33;3.20;;;2.50;;
13048;SDS011;6591;51.446;5.404;2023-02-28T08:56:07;2.30;;;2.10;;
13048;SDS011;6591;51.446;5.404;2023-02-28T08:58:38;2.57;;;1.90;;
13048;SDS011;6591;51.446;5.404;2023-02-28T09:01:12;1.97;;;1.80;;
13048;SDS011;6591;51.446;5.404;2023-02-28T09:03:44;3.73;;;2.17;;
13048;SDS011;6591;51.446;5.404;2023-02-28T09:06:14;2.23;;;2.03;;
13048;SDS011;6591;51.446;5.404;2023-02-28T09:08:46;5.07;;;1.80;;
13048;SDS011;6591;51.446;5.404;2023-02-28T09:11:13;2.47;;;2.10;;
13048;SDS011;6591;51.446;5.404;2023-02-28T09:13:40;2.67;;;1.87;;
13048;SDS011;6591;51.446;5.404;2023-02-28T09:16:09;5.40;;;2.23;;
13048;SDS011;6591;51.446;5.404;2023-02-28T09:18:39;2.17;;;1.90;;
13048;SDS011;6591;51.446;5.404;2023-02-28T09:21:07;2.33;;;2.13;;
13048;SDS011;6591;51.446;5.404;2023-02-28T09:23:40;2.30;;;2.10;;
13048;SDS011;6591;51.446;5.404;2023-02-28T09:26:16;2.73;;;2.00;;
13048;SDS011;6591;51.446;5.404;2023-02-28T09:29:04;3.17;;;2.03;;
13048;SDS011;6591;51.446;5.404;2023-02-28T09:31:31;3.37;;;1.93;;
13048;SDS011;6591;51.446;5.404;2023-02-28T09:33:58;1.50;;;1.40;;
13048;SDS011;6591;51.446;5.404;2023-02-28T09:36:26;3.37;;;1.80;;
13048;SDS011;6591;51.446;5.404;2023-02-28T09:39:09;2.27;;;1.90;;
13048;SDS011;6591;51.446;5.404;2023-02-28T09:41:43;1.90;;;1.70;;
13048;SDS011;6591;51.446;5.404;2023-02-28T09:47:07;1.63;;;1.53;;
13048;SDS011;6591;51.446;5.404;2023-02-28T09:50:11;1.80;;;1.67;;
13048;SDS011;6591;51.446;5.404;2023-02-28T09:52:52;1.97;;;1.50;;
13048;SDS011;6591;51.446;5.404;2023-02-28T09:55:32;2.13;;;1.73;;
13048;SDS011;6591;51.446;5.404;2023-02-28T09:58:16;1.70;;;1.60;;
13048;SDS011;6591;51.446;5.404;2023-02-28T10:00:58;1.50;;;1.40;;
13048;SDS011;6591;51.446;5.404;2023-02-28T10:04:07;4.07;;;1.80;;
13048;SDS011;6591;51.446;5.404;2023-02-28T10:06:52;1.77;;;1.60;;
13048;SDS011;6591;51.446;5.404;2023-02-28T10:09:41;3.03;;;1.40;;
13048;SDS011;6591;51.446;5.404;2023-02-28T10:12:08;1.93;;;1.50;;
13048;SDS011;6591;51.446;5.404;2023-02-28T10:14:38;2.27;;;1.63;;
13048;SDS011;6591;51.446;5.404;2023-02-28T10:17:16;3.00;;;1.73;;
13048;SDS011;6591;51.446;5.404;2023-02-28T10:19:59;1.63;;;1.50;;
13048;SDS011;6591;51.446;5.404;2023-02-28T10:22:52;1.60;;;1.47;;
13048;SDS011;6591;51.446;5.404;2023-02-28T10:25:25;2.23;;;1.70;;
13048;SDS011;6591;51.446;5.404;2023-02-28T10:28:08;2.30;;;1.67;;
13048;SDS011;6591;51.446;5.404;2023-02-28T10:30:43;1.83;;;1.50;;
13048;SDS011;6591;51.446;5.404;2023-02-28T10:33:24;2.07;;;1.87;;
13048;SDS011;6591;51.446;5.404;2023-02-28T10:35:58;2.17;;;1.83;;
13048;SDS011;6591;51.446;5.404;2023-02-28T10:41:05;1.97;;;1.57;;
13048;SDS011;6591;51.446;5.404;2023-02-28T10:43:42;2.33;;;1.70;;
13048;SDS011;6591;51.446;5.404;2023-02-28T10:49:00;1.70;;;1.60;;
13048;SDS011;6591;51.446;5.404;2023-02-28T10:51:39;2.47;;;1.83;;
13048;SDS011;6591;51.446;5.404;2023-02-28T10:54:22;2.60;;;1.90;;
13048;SDS011;6591;51.446;5.404;2023-02-28T10:57:17;2.30;;;1.70;;
13048;SDS011;6591;51.446;5.404;2023-02-28T11:00:06;2.00;;;1.67;;
13048;SDS011;6591;51.446;5.404;2023-02-28T11:02:49;1.57;;;1.40;;
13048;SDS011;6591;51.446;5.404;2023-02-28T11:05:31;2.47;;;1.53;;
13048;SDS011;6591;51.446;5.404;2023-02-28T11:08:04;2.93;;;1.60;;
13048;SDS011;6591;51.446;5.404;2023-02-28T11:10:54;3.33;;;1.50;;
13048;SDS011;6591;51.446;5.404;2023-02-28T11:13:33;1.83;;;1.63;;
13048;SDS011;6591;51.446;5.404;2023-02-28T11:16:04;1.90;;;1.50;;
13048;SDS011;6591;51.446;5.404;2023-02-28T11:18:55;1.70;;;1.50;;
13048;SDS011;6591;51.446;5.404;2023-02-28T11:21:25;2.40;;;1.60;;
13048;SDS011;6591;51.446;5.404;2023-02-28T11:26:52;2.70;;;1.53;;
13048;SDS011;6591;51.446;5.404;2023-02-28T11:29:26;2.70;;;1.50;;
13048;SDS011;6591;51.446;5.404;2023-02-28T11:35:12;2.10;;;1.60;;
13048;SDS011;6591;51.446;5.404;2023-02-28T11:37:49;2.47;;;1.80;;
13048;SDS011;6591;51.446;5.404;2023-02-28T11:41:05;3.63;;;1.93;;
13048;SDS011;6591;51.446;5.404;2023-02-28T11:43:40;1.63;;;1.53;;
13048;SDS011;6591;51.446;5.404;2023-02-28T11:46:29;3.67;;;1.83;;
13048;SDS011;6591;51.446;5.404;2023-02-28T11:49:13;1.63;;;1.50;;
13048;SDS011;6591;51.446;5.404;2023-02-28T11:51:59;2.87;;;1.70;;
13048;SDS011;6591;51.446;5.404;2023-02-28T11:54:35;2.07;;;1.70;;
13048;SDS011;6591;51.446;5.404;2023-02-28T12:00:38;2.97;;;1.90;;
13048;SDS011;6591;51.446;5.404;2023-02-28T12:18:14;10.60;;;1.70;;
13048;SDS011;6591;51.446;5.404;2023-02-28T12:23:43;2.70;;;1.90;;
13048;SDS011;6591;51.446;5.404;2023-02-28T12:26:41;2.33;;;1.93;;
13048;SDS011;6591;51.446;5.404;2023-02-28T12:31:51;1.93;;;1.60;;
13048;SDS011;6591;51.446;5.404;2023-02-28T12:34:29;2.53;;;2.10;;
13048;SDS011;6591;51.446;5.404;2023-02-28T12:37:10;2.20;;;1.70;;
13048;SDS011;6591;51.446;5.404;2023-02-28T12:40:02;2.13;;;1.80;;
13048;SDS011;6591;51.446;5.404;2023-02-28T12:42:48;3.37;;;1.90;;
13048;SDS011;6591;51.446;5.404;2023-02-28T12:45:26;1.87;;;1.67;;
13048;SDS011;6591;51.446;5.404;2023-02-28T12:48:26;2.47;;;1.90;;
13048;SDS011;6591;51.446;5.404;2023-02-28T12:51:19;4.40;;;2.10;;
13048;SDS011;6591;51.446;5.404;2023-02-28T12:56:44;2.33;;;2.00;;
13048;SDS011;6591;51.446;5.404;2023-02-28T12:59:34;2.10;;;1.90;;
13048;SDS011;6591;51.446;5.404;2023-02-28T13:10:53;2.07;;;1.87;;
13048;SDS011;6591;51.446;5.404;2023-02-28T13:13:24;1.90;;;1.70;;
13048;SDS011;6591;51.446;5.404;2023-02-28T13:16:00;2.77;;;1.80;;
13048;SDS011;6591;51.446;5.404;2023-02-28T13:18:37;3.00;;;2.13;;
13048;SDS011;6591;51.446;5.404;2023-02-28T13:21:09;1.90;;;1.80;;
13048;SDS011;6591;51.446;5.404;2023-02-28T13:23:58;4.20;;;1.80;;
13048;SDS011;6591;51.446;5.404;2023-02-28T13:34:32;1.93;;;1.73;;
13048;SDS011;6591;51.446;5.404;2023-02-28T13:39:52;5.80;;;1.83;;
13048;SDS011;6591;51.446;5.404;2023-02-28T13:42:33;2.33;;;2.03;;
13048;SDS011;6591;51.446;5.404;2023-02-28T13:47:42;2.00;;;1.80;;
13048;SDS011;6591;51.446;5.404;2023-02-28T13:50:31;1.93;;;1.57;;
13048;SDS011;6591;51.446;5.404;2023-02-28T13:55:49;2.03;;;1.77;;
13048;SDS011;6591;51.446;5.404;2023-02-28T14:07:32;2.10;;;1.80;;
13048;SDS011;6591;51.446;5.404;2023-02-28T14:10:30;2.33;;;2.00;;
13048;SDS011;6591;51.446;5.404;2023-02-28T14:13:12;3.40;;;1.70;;
13048;SDS011;6591;51.446;5.404;2023-02-28T14:16:04;2.90;;;1.90;;
13048;SDS011;6591;51.446;5.404;2023-02-28T14:18:35;2.43;;;1.90;;
13048;SDS011;6591;51.446;5.404;2023-02-28T14:21:24;2.23;;;1.83;;
13048;SDS011;6591;51.446;5.404;2023-02-28T14:27:11;3.43;;;1.97;;
13048;SDS011;6591;51.446;5.404;2023-02-28T14:30:11;2.00;;;1.80;;
13048;SDS011;6591;51.446;5.404;2023-02-28T14:39:10;2.67;;;1.80;;
13048;SDS011;6591;51.446;5.404;2023-02-28T14:41:43;2.00;;;1.80;;
13048;SDS011;6591;51.446;5.404;2023-02-28T14:46:52;1.97;;;1.87;;
13048;SDS011;6591;51.446;5.404;2023-02-28T14:49:26;2.13;;;1.97;;
13048;SDS011;6591;51.446;5.404;2023-02-28T14:54:42;2.80;;;1.93;;
13048;SDS011;6591;51.446;5.404;2023-02-28T14:57:23;2.43;;;2.07;;
13048;SDS011;6591;51.446;5.404;2023-02-28T15:00:14;2.50;;;2.27;;
13048;SDS011;6591;51.446;5.404;2023-02-28T15:02:52;2.73;;;2.20;;
13048;SDS011;6591;51.446;5.404;2023-02-28T15:05:29;2.23;;;2.03;;
13048;SDS011;6591;51.446;5.404;2023-02-28T15:10:45;2.60;;;2.20;;
13048;SDS011;6591;51.446;5.404;2023-02-28T15:13:31;2.57;;;2.33;;
13048;SDS011;6591;51.446;5.404;2023-02-28T15:16:11;2.53;;;2.27;;
13048;SDS011;6591;51.446;5.404;2023-02-28T15:18:51;3.70;;;2.60;;
13048;SDS011;6591;51.446;5.404;2023-02-28T15:21:35;2.93;;;2.30;;
13048;SDS011;6591;51.446;5.404;2023-02-28T15:27:35;2.30;;;2.10;;
13048;SDS011;6591;51.446;5.404;2023-02-28T15:30:15;2.17;;;1.87;;
13048;SDS011;6591;51.446;5.404;2023-02-28T15:33:01;2.73;;;1.90;;
13048;SDS011;6591;51.446;5.404;2023-02-28T15:35:38;2.40;;;2.20;;
13048;SDS011;6591;51.446;5.404;2023-02-28T15:38:16;2.67;;;1.93;;
13048;SDS011;6591;51.446;5.404;2023-02-28T15:40:52;2.10;;;1.90;;
13048;SDS011;6591;51.446;5.404;2023-02-28T15:43:23;2.43;;;2.00;;
13048;SDS011;6591;51.446;5.404;2023-02-28T15:46:09;2.27;;;1.90;;
13048;SDS011;6591;51.446;5.404;2023-02-28T15:48:43;2.40;;;2.00;;
13048;SDS011;6591;51.446;5.404;2023-02-28T15:51:24;2.47;;;2.10;;
13048;SDS011;6591;51.446;5.404;2023-02-28T15:54:04;1.83;;;1.70;;
13048;SDS011;6591;51.446;5.404;2023-02-28T15:56:42;3.53;;;2.40;;
13048;SDS011;6591;51.446;5.404;2023-02-28T15:59:26;2.00;;;1.90;;
13048;SDS011;6591;51.446;5.404;2023-02-28T16:04:57;2.17;;;1.90;;
13048;SDS011;6591;51.446;5.404;2023-02-28T16:07:44;2.70;;;2.27;;
13048;SDS011;6591;51.446;5.404;2023-02-28T16:10:12;2.87;;;2.20;;
13048;SDS011;6591;51.446;5.404;2023-02-28T16:12:40;2.67;;;2.33;;
13048;SDS011;6591;51.446;5.404;2023-02-28T16:15:14;3.23;;;2.27;;
13048;SDS011;6591;51.446;5.404;2023-02-28T16:18:12;2.40;;;2.20;;
13048;SDS011;6591;51.446;5.404;2023-02-28T16:20:40;3.17;;;2.40;;
13048;SDS011;6591;51.446;5.404;2023-02-28T16:23:07;2.17;;;1.97;;
13048;SDS011;6591;51.446;5.404;2023-02-28T16:25:38;2.30;;;2.07;;
13048;SDS011;6591;51.446;5.404;2023-02-28T16:28:15;2.57;;;2.03;;
13048;SDS011;6591;51.446;5.404;2023-02-28T16:30:56;3.03;;;2.07;;
13048;SDS011;6591;51.446;5.404;2023-02-28T16:33:23;3.30;;;2.27;;
13048;SDS011;6591;51.446;5.404;2023-02-28T16:35:51;2.67;;;2.27;;
13048;SDS011;6591;51.446;5.404;2023-02-28T16:38:18;2.30;;;2.10;;
13048;SDS011;6591;51.446;5.404;2023-02-28T16:40:46;3.47;;;2.50;;
13048;SDS011;6591;51.446;5.404;2023-02-28T16:43:17;2.30;;;2.10;;
13048;SDS011;6591;51.446;5.404;2023-02-28T16:45:52;3.87;;;2.60;;
13048;SDS011;6591;51.446;5.404;2023-02-28T16:48:27;3.07;;;2.43;;
13048;SDS011;6591;51.446;5.404;2023-02-28T16:50:56;2.47;;;2.00;;
13048;SDS011;6591;51.446;5.404;2023-02-28T16:53:23;3.67;;;1.90;;
13048;SDS011;6591;51.446;5.404;2023-02-28T16:55:50;2.57;;;2.30;;
13048;SDS011;6591;51.446;5.404;2023-02-28T16:58:18;2.90;;;2.60;;
13048;SDS011;6591;51.446;5.404;2023-02-28T17:00:47;3.43;;;2.23;;
13048;SDS011;6591;51.446;5.404;2023-02-28T17:05:59;3.03;;;2.30;;
13048;SDS011;6591;51.446;5.404;2023-02-28T17:08:26;2.40;;;2.20;;
13048;SDS011;6591;51.446;5.404;2023-02-28T17:10:55;3.30;;;2.00;;
13048;SDS011;6591;51.446;5.404;2023-02-28T17:13:22;3.13;;;2.47;;
13048;SDS011;6591;51.446;5.404;2023-02-28T17:15:50;2.70;;;2.20;;
13048;SDS011;6591;51.446;5.404;2023-02-28T17:18:19;3.57;;;2.53;;
13048;SDS011;6591;51.446;5.404;2023-02-28T17:20:47;2.33;;;2.13;;
13048;SDS011;6591;51.446;5.404;2023-02-28T17:23:15;3.47;;;2.80;;
13048;SDS011;6591;51.446;5.404;2023-02-28T17:25:42;2.63;;;2.20;;
13048;SDS011;6591;51.446;5.404;2023-02-28T17:28:23;2.50;;;2.30;;
13048;SDS011;6591;51.446;5.404;2023-02-28T17:30:50;4.77;;;2.43;;
13048;SDS011;6591;51.446;5.404;2023-02-28T17:33:17;7.43;;;2.57;;
13048;SDS011;6591;51.446;5.404;2023-02-28T17:35:44;2.90;;;2.50;;
13048;SDS011;6591;51.446;5.404;2023-02-28T17:38:18;3.77;;;2.40;;
13048;SDS011;6591;51.446;5.404;2023-02-28T17:40:46;2.50;;;2.27;;
13048;SDS011;6591;51.446;5.404;2023-02-28T17:43:13;2.90;;;2.60;;
13048;SDS011;6591;51.446;5.404;2023-02-28T17:45:41;3.63;;;2.53;;
13048;SDS011;6591;51.446;5.404;2023-02-28T17:48:09;61.10;;;31.00;;
13048;SDS011;6591;51.446;5.404;2023-02-28T17:50:39;7.67;;;4.67;;
13048;SDS011;6591;51.446;5.404;2023-02-28T17:53:06;4.83;;;3.50;;
13048;SDS011;6591;51.446;5.404;2023-02-28T17:55:34;5.00;;;2.80;;
13048;SDS011;6591;51.446;5.404;2023-02-28T17:58:02;2.80;;;2.50;;
13048;SDS011;6591;51.446;5.404;2023-02-28T18:00:30;3.10;;;2.80;;
13048;SDS011;6591;51.446;5.404;2023-02-28T18:02:59;4.97;;;2.73;;
13048;SDS011;6591;51.446;5.404;2023-02-28T18:05:26;4.73;;;2.30;;
13048;SDS011;6591;51.446;5.404;2023-02-28T18:07:53;3.90;;;2.50;;